Terminal Aerodrome Forecast
Issued by NWS Portland, OR

Home | Current Version | Previous Version | Text Only | Print | Product List | Glossary On
Versions: 1 2 3 4 5 6 7 8 9 10 11 12 13 14 15 16 17 18 19 20 21 22 23 24 25 26 27 28 29 30 31 32 33 34 35 36 37 38
000
FTUS46 KPQR 220533
TAFAST
TAF
KAST 220533Z 2206/2306 16010KT 6SM -RA BKN035 OVC045
     FM220800 19018G30KT 5SM -RA BKN025 OVC040
     FM221100 19025G38KT 3SM RA OVC015
     FM221500 20018G30KT 6SM -RA BKN025 OVC035
     FM221900 22015G25KT 6SM -RA BKN035 OVC050
     FM230000 20010KT P6SM -SHRA SCT025 BKN050=

USA.gov is the U.S. government's official web portal to all federal, state and local government web resources and services.